sensor_id;sensor_type;location;lat;lon;timestamp;P1;durP1;ratioP1;P2;durP2;ratioP2
14516;SDS011;7344;50.864;4.362;2022-11-15T00:00:53;25.07;;;17.70;;
14516;SDS011;7344;50.864;4.362;2022-11-15T00:03:24;25.33;;;18.63;;
14516;SDS011;7344;50.864;4.362;2022-11-15T00:05:51;23.97;;;17.77;;
14516;SDS011;7344;50.864;4.362;2022-11-15T00:08:17;21.80;;;17.70;;
14516;SDS011;7344;50.864;4.362;2022-11-15T00:10:42;23.37;;;18.17;;
14516;SDS011;7344;50.864;4.362;2022-11-15T00:13:18;24.80;;;18.07;;
14516;SDS011;7344;50.864;4.362;2022-11-15T00:15:43;25.50;;;18.40;;
14516;SDS011;7344;50.864;4.362;2022-11-15T00:18:12;22.90;;;17.83;;
14516;SDS011;7344;50.864;4.362;2022-11-15T00:20:38;21.80;;;18.27;;
14516;SDS011;7344;50.864;4.362;2022-11-15T00:23:13;21.57;;;18.40;;
14516;SDS011;7344;50.864;4.362;2022-11-15T00:25:39;26.20;;;19.23;;
14516;SDS011;7344;50.864;4.362;2022-11-15T00:28:07;24.97;;;19.00;;
14516;SDS011;7344;50.864;4.362;2022-11-15T00:30:33;22.47;;;19.43;;
14516;SDS011;7344;50.864;4.362;2022-11-15T00:33:03;25.03;;;18.97;;
14516;SDS011;7344;50.864;4.362;2022-11-15T00:35:33;23.10;;;18.80;;
14516;SDS011;7344;50.864;4.362;2022-11-15T00:37:59;105.53;;;81.60;;
14516;SDS011;7344;50.864;4.362;2022-11-15T00:40:26;34.97;;;24.10;;
14516;SDS011;7344;50.864;4.362;2022-11-15T00:42:55;42.03;;;31.73;;
14516;SDS011;7344;50.864;4.362;2022-11-15T00:45:21;23.63;;;19.93;;
14516;SDS011;7344;50.864;4.362;2022-11-15T00:47:47;26.83;;;19.47;;
14516;SDS011;7344;50.864;4.362;2022-11-15T00:50:12;30.53;;;21.17;;
14516;SDS011;7344;50.864;4.362;2022-11-15T00:52:38;24.43;;;19.83;;
14516;SDS011;7344;50.864;4.362;2022-11-15T00:55:04;24.43;;;19.43;;
14516;SDS011;7344;50.864;4.362;2022-11-15T00:57:36;33.43;;;27.47;;
14516;SDS011;7344;50.864;4.362;2022-11-15T01:00:02;22.13;;;18.40;;
14516;SDS011;7344;50.864;4.362;2022-11-15T01:02:28;25.87;;;19.40;;
14516;SDS011;7344;50.864;4.362;2022-11-15T01:04:53;27.47;;;19.17;;
14516;SDS011;7344;50.864;4.362;2022-11-15T01:07:19;27.63;;;20.30;;
14516;SDS011;7344;50.864;4.362;2022-11-15T01:09:47;27.67;;;19.67;;
14516;SDS011;7344;50.864;4.362;2022-11-15T01:12:13;24.37;;;19.47;;
14516;SDS011;7344;50.864;4.362;2022-11-15T01:14:38;26.57;;;21.57;;
14516;SDS011;7344;50.864;4.362;2022-11-15T01:17:04;37.27;;;21.13;;
14516;SDS011;7344;50.864;4.362;2022-11-15T01:19:29;28.30;;;21.97;;
14516;SDS011;7344;50.864;4.362;2022-11-15T01:21:55;33.50;;;21.47;;
14516;SDS011;7344;50.864;4.362;2022-11-15T01:24:20;26.53;;;21.43;;
14516;SDS011;7344;50.864;4.362;2022-11-15T01:26:46;27.97;;;21.77;;
14516;SDS011;7344;50.864;4.362;2022-11-15T01:29:14;26.20;;;19.80;;
14516;SDS011;7344;50.864;4.362;2022-11-15T01:31:40;30.53;;;20.60;;
14516;SDS011;7344;50.864;4.362;2022-11-15T01:34:05;32.40;;;21.37;;
14516;SDS011;7344;50.864;4.362;2022-11-15T01:36:31;26.47;;;20.67;;
14516;SDS011;7344;50.864;4.362;2022-11-15T01:38:59;26.90;;;20.63;;
14516;SDS011;7344;50.864;4.362;2022-11-15T01:41:26;25.23;;;20.23;;
14516;SDS011;7344;50.864;4.362;2022-11-15T01:43:55;25.10;;;19.33;;
14516;SDS011;7344;50.864;4.362;2022-11-15T01:46:33;27.63;;;19.70;;
14516;SDS011;7344;50.864;4.362;2022-11-15T01:49:02;24.77;;;19.50;;
14516;SDS011;7344;50.864;4.362;2022-11-15T01:51:31;22.23;;;18.43;;
14516;SDS011;7344;50.864;4.362;2022-11-15T01:54:06;25.83;;;18.73;;
14516;SDS011;7344;50.864;4.362;2022-11-15T01:56:38;23.43;;;18.47;;
14516;SDS011;7344;50.864;4.362;2022-11-15T01:59:11;24.60;;;18.30;;
14516;SDS011;7344;50.864;4.362;2022-11-15T02:01:37;22.50;;;17.97;;
14516;SDS011;7344;50.864;4.362;2022-11-15T02:04:16;23.87;;;17.90;;
14516;SDS011;7344;50.864;4.362;2022-11-15T02:06:45;22.60;;;17.37;;
14516;SDS011;7344;50.864;4.362;2022-11-15T02:09:16;21.57;;;17.17;;
14516;SDS011;7344;50.864;4.362;2022-11-15T02:11:42;21.80;;;17.67;;
14516;SDS011;7344;50.864;4.362;2022-11-15T02:14:10;22.50;;;17.80;;
14516;SDS011;7344;50.864;4.362;2022-11-15T02:34:09;23.80;;;17.60;;
14516;SDS011;7344;50.864;4.362;2022-11-15T02:36:41;23.33;;;17.37;;
14516;SDS011;7344;50.864;4.362;2022-11-15T02:42:07;19.97;;;16.20;;
14516;SDS011;7344;50.864;4.362;2022-11-15T02:45:06;20.43;;;16.73;;
14516;SDS011;7344;50.864;4.362;2022-11-15T02:47:41;24.13;;;17.03;;
14516;SDS011;7344;50.864;4.362;2022-11-15T02:50:10;21.40;;;17.20;;
14516;SDS011;7344;50.864;4.362;2022-11-15T02:52:40;23.50;;;16.33;;
14516;SDS011;7344;50.864;4.362;2022-11-15T02:55:29;21.47;;;16.37;;
14516;SDS011;7344;50.864;4.362;2022-11-15T02:58:19;20.97;;;16.10;;
14516;SDS011;7344;50.864;4.362;2022-11-15T03:01:35;18.43;;;15.23;;
14516;SDS011;7344;50.864;4.362;2022-11-15T03:06:42;20.57;;;15.13;;
14516;SDS011;7344;50.864;4.362;2022-11-15T03:12:30;19.93;;;14.60;;
14516;SDS011;7344;50.864;4.362;2022-11-15T03:15:13;21.17;;;14.33;;
14516;SDS011;7344;50.864;4.362;2022-11-15T03:17:52;16.73;;;13.40;;
14516;SDS011;7344;50.864;4.362;2022-11-15T03:20:29;17.63;;;13.30;;
14516;SDS011;7344;50.864;4.362;2022-11-15T03:22:56;17.80;;;12.77;;
14516;SDS011;7344;50.864;4.362;2022-11-15T03:25:28;16.87;;;12.23;;
14516;SDS011;7344;50.864;4.362;2022-11-15T03:27:57;13.63;;;11.40;;
14516;SDS011;7344;50.864;4.362;2022-11-15T03:30:26;15.00;;;10.97;;
14516;SDS011;7344;50.864;4.362;2022-11-15T03:32:56;14.43;;;10.87;;
14516;SDS011;7344;50.864;4.362;2022-11-15T03:35:24;14.10;;;11.37;;
14516;SDS011;7344;50.864;4.362;2022-11-15T03:40:52;16.00;;;10.47;;
14516;SDS011;7344;50.864;4.362;2022-11-15T03:49:00;10.07;;;9.07;;
14516;SDS011;7344;50.864;4.362;2022-11-15T03:51:37;11.40;;;8.87;;
14516;SDS011;7344;50.864;4.362;2022-11-15T03:54:06;11.53;;;9.10;;
14516;SDS011;7344;50.864;4.362;2022-11-15T03:56:32;17.00;;;9.00;;
14516;SDS011;7344;50.864;4.362;2022-11-15T03:58:57;11.33;;;8.53;;
14516;SDS011;7344;50.864;4.362;2022-11-15T04:01:23;10.63;;;8.97;;
14516;SDS011;7344;50.864;4.362;2022-11-15T04:03:49;14.47;;;9.00;;
14516;SDS011;7344;50.864;4.362;2022-11-15T04:06:14;11.40;;;8.67;;
14516;SDS011;7344;50.864;4.362;2022-11-15T04:08:40;10.20;;;8.30;;
14516;SDS011;7344;50.864;4.362;2022-11-15T04:11:05;12.73;;;8.67;;
14516;SDS011;7344;50.864;4.362;2022-11-15T04:13:31;13.20;;;8.93;;
14516;SDS011;7344;50.864;4.362;2022-11-15T04:15:56;10.80;;;8.57;;
14516;SDS011;7344;50.864;4.362;2022-11-15T04:18:28;9.67;;;8.50;;
14516;SDS011;7344;50.864;4.362;2022-11-15T04:20:54;10.70;;;8.17;;
14516;SDS011;7344;50.864;4.362;2022-11-15T04:23:41;10.53;;;8.30;;
14516;SDS011;7344;50.864;4.362;2022-11-15T04:26:25;10.93;;;8.20;;
14516;SDS011;7344;50.864;4.362;2022-11-15T04:28:50;11.67;;;8.50;;
14516;SDS011;7344;50.864;4.362;2022-11-15T04:31:34;10.70;;;7.43;;
14516;SDS011;7344;50.864;4.362;2022-11-15T04:34:00;11.40;;;8.07;;
14516;SDS011;7344;50.864;4.362;2022-11-15T04:36:26;13.23;;;7.87;;
14516;SDS011;7344;50.864;4.362;2022-11-15T04:39:10;7.77;;;6.97;;
14516;SDS011;7344;50.864;4.362;2022-11-15T04:41:35;8.50;;;7.60;;
14516;SDS011;7344;50.864;4.362;2022-11-15T04:44:01;13.97;;;7.80;;
14516;SDS011;7344;50.864;4.362;2022-11-15T04:46:29;8.60;;;6.83;;
14516;SDS011;7344;50.864;4.362;2022-11-15T04:48:55;10.67;;;7.43;;
14516;SDS011;7344;50.864;4.362;2022-11-15T04:51:20;9.23;;;6.93;;
14516;SDS011;7344;50.864;4.362;2022-11-15T04:53:49;10.27;;;7.47;;
14516;SDS011;7344;50.864;4.362;2022-11-15T04:56:15;7.70;;;7.00;;
14516;SDS011;7344;50.864;4.362;2022-11-15T04:58:40;11.83;;;6.77;;
14516;SDS011;7344;50.864;4.362;2022-11-15T05:01:09;10.30;;;7.10;;
14516;SDS011;7344;50.864;4.362;2022-11-15T05:03:36;9.47;;;6.93;;
14516;SDS011;7344;50.864;4.362;2022-11-15T05:06:20;14.47;;;7.23;;
14516;SDS011;7344;50.864;4.362;2022-11-15T05:08:45;14.77;;;7.17;;
14516;SDS011;7344;50.864;4.362;2022-11-15T05:11:11;8.27;;;6.63;;
14516;SDS011;7344;50.864;4.362;2022-11-15T05:13:37;10.20;;;6.67;;
14516;SDS011;7344;50.864;4.362;2022-11-15T05:16:05;10.33;;;6.10;;
14516;SDS011;7344;50.864;4.362;2022-11-15T05:18:31;10.87;;;6.20;;
14516;SDS011;7344;50.864;4.362;2022-11-15T05:21:17;8.67;;;6.03;;
14516;SDS011;7344;50.864;4.362;2022-11-15T05:23:43;12.40;;;6.40;;
14516;SDS011;7344;50.864;4.362;2022-11-15T05:26:11;9.47;;;6.03;;
14516;SDS011;7344;50.864;4.362;2022-11-15T05:28:40;10.87;;;5.80;;
14516;SDS011;7344;50.864;4.362;2022-11-15T05:31:06;8.00;;;5.40;;
14516;SDS011;7344;50.864;4.362;2022-11-15T05:33:34;6.17;;;5.50;;
14516;SDS011;7344;50.864;4.362;2022-11-15T05:36:04;8.67;;;5.37;;
14516;SDS011;7344;50.864;4.362;2022-11-15T05:38:49;6.23;;;5.10;;
14516;SDS011;7344;50.864;4.362;2022-11-15T05:41:15;6.60;;;5.33;;
14516;SDS011;7344;50.864;4.362;2022-11-15T05:43:43;7.47;;;4.97;;
14516;SDS011;7344;50.864;4.362;2022-11-15T05:46:09;8.20;;;4.80;;
14516;SDS011;7344;50.864;4.362;2022-11-15T05:48:35;10.00;;;5.20;;
14516;SDS011;7344;50.864;4.362;2022-11-15T05:51:02;8.90;;;4.63;;
14516;SDS011;7344;50.864;4.362;2022-11-15T05:53:29;7.97;;;5.20;;
14516;SDS011;7344;50.864;4.362;2022-11-15T05:55:56;8.50;;;4.90;;
14516;SDS011;7344;50.864;4.362;2022-11-15T05:58:24;6.67;;;5.17;;
14516;SDS011;7344;50.864;4.362;2022-11-15T06:00:50;7.73;;;5.30;;
14516;SDS011;7344;50.864;4.362;2022-11-15T06:03:16;9.53;;;5.33;;
14516;SDS011;7344;50.864;4.362;2022-11-15T06:05:41;8.47;;;5.57;;
14516;SDS011;7344;50.864;4.362;2022-11-15T06:08:07;9.20;;;5.13;;
14516;SDS011;7344;50.864;4.362;2022-11-15T06:10:32;7.37;;;5.50;;
14516;SDS011;7344;50.864;4.362;2022-11-15T06:15:24;5.43;;;4.90;;
14516;SDS011;7344;50.864;4.362;2022-11-15T06:17:50;14.90;;;5.93;;
14516;SDS011;7344;50.864;4.362;2022-11-15T06:20:16;11.30;;;6.00;;
14516;SDS011;7344;50.864;4.362;2022-11-15T06:22:42;9.93;;;5.67;;
14516;SDS011;7344;50.864;4.362;2022-11-15T06:25:11;12.20;;;5.93;;
14516;SDS011;7344;50.864;4.362;2022-11-15T06:27:36;7.73;;;5.50;;
14516;SDS011;7344;50.864;4.362;2022-11-15T06:30:02;9.30;;;5.60;;
14516;SDS011;7344;50.864;4.362;2022-11-15T06:32:30;9.07;;;5.33;;
14516;SDS011;7344;50.864;4.362;2022-11-15T06:34:56;6.73;;;5.20;;
14516;SDS011;7344;50.864;4.362;2022-11-15T06:37:21;5.57;;;5.03;;
14516;SDS011;7344;50.864;4.362;2022-11-15T06:39:47;9.17;;;5.17;;
14516;SDS011;7344;50.864;4.362;2022-11-15T06:42:15;9.53;;;4.90;;
14516;SDS011;7344;50.864;4.362;2022-11-15T06:44:41;7.63;;;5.20;;
14516;SDS011;7344;50.864;4.362;2022-11-15T06:47:06;8.43;;;5.20;;
14516;SDS011;7344;50.864;4.362;2022-11-15T06:49:32;8.63;;;5.37;;
14516;SDS011;7344;50.864;4.362;2022-11-15T06:51:57;9.37;;;5.00;;
14516;SDS011;7344;50.864;4.362;2022-11-15T06:54:23;7.27;;;5.20;;
14516;SDS011;7344;50.864;4.362;2022-11-15T06:56:49;8.97;;;4.80;;
14516;SDS011;7344;50.864;4.362;2022-11-15T06:59:14;8.50;;;4.90;;
14516;SDS011;7344;50.864;4.362;2022-11-15T07:01:40;7.73;;;5.03;;
14516;SDS011;7344;50.864;4.362;2022-11-15T07:04:05;7.40;;;5.03;;
14516;SDS011;7344;50.864;4.362;2022-11-15T07:06:31;6.20;;;4.67;;
14516;SDS011;7344;50.864;4.362;2022-11-15T07:08:56;7.37;;;5.03;;
14516;SDS011;7344;50.864;4.362;2022-11-15T07:11:22;12.70;;;4.97;;
14516;SDS011;7344;50.864;4.362;2022-11-15T07:13:48;6.37;;;4.53;;
14516;SDS011;7344;50.864;4.362;2022-11-15T07:16:13;8.67;;;4.93;;
14516;SDS011;7344;50.864;4.362;2022-11-15T07:18:41;6.37;;;4.47;;
14516;SDS011;7344;50.864;4.362;2022-11-15T07:21:08;8.80;;;4.50;;
14516;SDS011;7344;50.864;4.362;2022-11-15T07:23:38;6.43;;;3.80;;
14516;SDS011;7344;50.864;4.362;2022-11-15T07:26:05;7.17;;;4.50;;
14516;SDS011;7344;50.864;4.362;2022-11-15T07:28:32;5.83;;;4.50;;
14516;SDS011;7344;50.864;4.362;2022-11-15T07:30:57;6.60;;;4.20;;
14516;SDS011;7344;50.864;4.362;2022-11-15T07:33:25;5.83;;;4.20;;
14516;SDS011;7344;50.864;4.362;2022-11-15T07:35:50;7.80;;;4.33;;
14516;SDS011;7344;50.864;4.362;2022-11-15T07:38:16;7.50;;;4.30;;
14516;SDS011;7344;50.864;4.362;2022-11-15T07:40:45;4.43;;;4.00;;
14516;SDS011;7344;50.864;4.362;2022-11-15T07:43:11;8.70;;;4.67;;
14516;SDS011;7344;50.864;4.362;2022-11-15T07:45:43;4.90;;;4.30;;
14516;SDS011;7344;50.864;4.362;2022-11-15T07:48:15;11.30;;;4.90;;
14516;SDS011;7344;50.864;4.362;2022-11-15T07:50:41;4.37;;;3.80;;
14516;SDS011;7344;50.864;4.362;2022-11-15T07:53:07;6.60;;;3.77;;
14516;SDS011;7344;50.864;4.362;2022-11-15T07:55:34;5.53;;;3.63;;
14516;SDS011;7344;50.864;4.362;2022-11-15T07:58:00;5.60;;;3.53;;
14516;SDS011;7344;50.864;4.362;2022-11-15T08:00:27;4.90;;;3.60;;
14516;SDS011;7344;50.864;4.362;2022-11-15T08:03:06;5.33;;;3.70;;
14516;SDS011;7344;50.864;4.362;2022-11-15T08:05:34;5.13;;;3.50;;
14516;SDS011;7344;50.864;4.362;2022-11-15T08:08:00;5.13;;;3.53;;
14516;SDS011;7344;50.864;4.362;2022-11-15T08:10:26;4.07;;;2.60;;
14516;SDS011;7344;50.864;4.362;2022-11-15T08:12:59;3.00;;;2.80;;
14516;SDS011;7344;50.864;4.362;2022-11-15T08:15:26;4.47;;;3.20;;
14516;SDS011;7344;50.864;4.362;2022-11-15T08:17:59;4.63;;;2.83;;
14516;SDS011;7344;50.864;4.362;2022-11-15T08:20:28;7.17;;;2.80;;
14516;SDS011;7344;50.864;4.362;2022-11-15T08:22:55;4.47;;;2.47;;
14516;SDS011;7344;50.864;4.362;2022-11-15T08:25:24;3.40;;;2.97;;
14516;SDS011;7344;50.864;4.362;2022-11-15T08:27:58;4.97;;;2.57;;
14516;SDS011;7344;50.864;4.362;2022-11-15T08:30:25;8.23;;;2.97;;
14516;SDS011;7344;50.864;4.362;2022-11-15T08:32:51;4.03;;;2.47;;
14516;SDS011;7344;50.864;4.362;2022-11-15T08:35:22;4.37;;;2.30;;
14516;SDS011;7344;50.864;4.362;2022-11-15T08:37:48;4.00;;;2.37;;
14516;SDS011;7344;50.864;4.362;2022-11-15T08:40:14;3.43;;;2.20;;
14516;SDS011;7344;50.864;4.362;2022-11-15T08:42:40;4.37;;;2.20;;
14516;SDS011;7344;50.864;4.362;2022-11-15T08:45:07;7.10;;;2.43;;
14516;SDS011;7344;50.864;4.362;2022-11-15T08:47:33;3.00;;;2.10;;
14516;SDS011;7344;50.864;4.362;2022-11-15T08:50:02;6.27;;;1.90;;
14516;SDS011;7344;50.864;4.362;2022-11-15T08:52:27;6.37;;;2.20;;
14516;SDS011;7344;50.864;4.362;2022-11-15T08:54:56;3.57;;;2.47;;
14516;SDS011;7344;50.864;4.362;2022-11-15T08:57:27;3.30;;;2.37;;
14516;SDS011;7344;50.864;4.362;2022-11-15T08:59:55;5.60;;;2.70;;
14516;SDS011;7344;50.864;4.362;2022-11-15T09:02:20;9.20;;;3.17;;
14516;SDS011;7344;50.864;4.362;2022-11-15T09:04:46;5.43;;;4.90;;
14516;SDS011;7344;50.864;4.362;2022-11-15T09:07:13;6.10;;;2.27;;
14516;SDS011;7344;50.864;4.362;2022-11-15T09:09:39;4.53;;;2.30;;
14516;SDS011;7344;50.864;4.362;2022-11-15T09:12:05;4.50;;;2.23;;
14516;SDS011;7344;50.864;4.362;2022-11-15T09:14:37;3.60;;;2.00;;
14516;SDS011;7344;50.864;4.362;2022-11-15T09:17:07;5.83;;;2.20;;
14516;SDS011;7344;50.864;4.362;2022-11-15T09:19:33;5.57;;;1.83;;
14516;SDS011;7344;50.864;4.362;2022-11-15T09:21:59;9.40;;;2.10;;
14516;SDS011;7344;50.864;4.362;2022-11-15T09:24:25;4.03;;;1.87;;
14516;SDS011;7344;50.864;4.362;2022-11-15T09:26:50;3.07;;;1.80;;
14516;SDS011;7344;50.864;4.362;2022-11-15T09:29:16;3.87;;;1.70;;
14516;SDS011;7344;50.864;4.362;2022-11-15T09:31:42;7.67;;;2.00;;
14516;SDS011;7344;50.864;4.362;2022-11-15T09:34:08;4.93;;;2.00;;
14516;SDS011;7344;50.864;4.362;2022-11-15T09:36:34;5.67;;;2.20;;
14516;SDS011;7344;50.864;4.362;2022-11-15T09:39:00;3.23;;;1.70;;
14516;SDS011;7344;50.864;4.362;2022-11-15T09:47:57;4.43;;;1.88;;
14516;SDS011;7344;50.864;4.362;2022-11-15T09:50:21;2.50;;;1.60;;
14516;SDS011;7344;50.864;4.362;2022-11-15T09:53:25;6.97;;;2.10;;
14516;SDS011;7344;50.864;4.362;2022-11-15T09:56:05;3.07;;;1.40;;
14516;SDS011;7344;50.864;4.362;2022-11-15T10:04:29;5.37;;;1.70;;
14516;SDS011;7344;50.864;4.362;2022-11-15T10:07:17;6.70;;;1.87;;
14516;SDS011;7344;50.864;4.362;2022-11-15T10:12:39;5.53;;;1.97;;
14516;SDS011;7344;50.864;4.362;2022-11-15T10:15:11;3.90;;;1.90;;
14516;SDS011;7344;50.864;4.362;2022-11-15T10:20:46;2.77;;;1.70;;
14516;SDS011;7344;50.864;4.362;2022-11-15T10:23:13;7.90;;;1.83;;
14516;SDS011;7344;50.864;4.362;2022-11-15T10:25:41;4.80;;;1.70;;
14516;SDS011;7344;50.864;4.362;2022-11-15T10:28:17;6.53;;;1.63;;
14516;SDS011;7344;50.864;4.362;2022-11-15T10:30:54;3.37;;;1.70;;
14516;SDS011;7344;50.864;4.362;2022-11-15T10:33:23;8.43;;;2.03;;
14516;SDS011;7344;50.864;4.362;2022-11-15T10:41:15;4.83;;;1.80;;
14516;SDS011;7344;50.864;4.362;2022-11-15T10:44:01;5.13;;;1.80;;
14516;SDS011;7344;50.864;4.362;2022-11-15T10:46:30;3.27;;;1.90;;
14516;SDS011;7344;50.864;4.362;2022-11-15T10:49:12;4.27;;;1.70;;
14516;SDS011;7344;50.864;4.362;2022-11-15T10:57:33;2.43;;;1.20;;
14516;SDS011;7344;50.864;4.362;2022-11-15T11:00:03;7.57;;;2.13;;
14516;SDS011;7344;50.864;4.362;2022-11-15T11:04:59;12.97;;;2.50;;
14516;SDS011;7344;50.864;4.362;2022-11-15T11:07:32;6.50;;;1.60;;
14516;SDS011;7344;50.864;4.362;2022-11-15T11:10:18;6.40;;;2.00;;
14516;SDS011;7344;50.864;4.362;2022-11-15T11:12:46;5.27;;;1.73;;
14516;SDS011;7344;50.864;4.362;2022-11-15T11:15:15;6.67;;;2.20;;
14516;SDS011;7344;50.864;4.362;2022-11-15T11:17:47;7.00;;;1.87;;
14516;SDS011;7344;50.864;4.362;2022-11-15T11:20:49;9.00;;;1.83;;
14516;SDS011;7344;50.864;4.362;2022-11-15T11:31:43;4.07;;;1.70;;
14516;SDS011;7344;50.864;4.362;2022-11-15T11:34:26;5.40;;;2.23;;
14516;SDS011;7344;50.864;4.362;2022-11-15T11:40:20;5.93;;;1.70;;
14516;SDS011;7344;50.864;4.362;2022-11-15T11:43:16;4.50;;;2.00;;
14516;SDS011;7344;50.864;4.362;2022-11-15T11:48:42;3.53;;;1.33;;
14516;SDS011;7344;50.864;4.362;2022-11-15T11:51:15;5.37;;;1.90;;
14516;SDS011;7344;50.864;4.362;2022-11-15T11:53:47;6.83;;;1.70;;
14516;SDS011;7344;50.864;4.362;2022-11-15T11:56:50;6.30;;;1.73;;
14516;SDS011;7344;50.864;4.362;2022-11-15T11:59:29;3.40;;;1.40;;
14516;SDS011;7344;50.864;4.362;2022-11-15T12:02:18;6.77;;;1.90;;
14516;SDS011;7344;50.864;4.362;2022-11-15T12:04:48;5.10;;;1.90;;
14516;SDS011;7344;50.864;4.362;2022-11-15T12:07:24;4.23;;;1.40;;
14516;SDS011;7344;50.864;4.362;2022-11-15T12:10:04;4.03;;;2.03;;
14516;SDS011;7344;50.864;4.362;2022-11-15T12:13:01;4.93;;;1.93;;
14516;SDS011;7344;50.864;4.362;2022-11-15T12:18:12;3.87;;;1.93;;
14516;SDS011;7344;50.864;4.362;2022-11-15T12:20:40;5.30;;;1.67;;
14516;SDS011;7344;50.864;4.362;2022-11-15T12:23:32;6.53;;;1.90;;
14516;SDS011;7344;50.864;4.362;2022-11-15T12:26:11;3.67;;;1.90;;
14516;SDS011;7344;50.864;4.362;2022-11-15T12:28:51;7.83;;;1.63;;
14516;SDS011;7344;50.864;4.362;2022-11-15T12:33:57;2.70;;;1.70;;
14516;SDS011;7344;50.864;4.362;2022-11-15T12:38:58;3.63;;;1.60;;
14516;SDS011;7344;50.864;4.362;2022-11-15T12:41:35;4.27;;;1.60;;
14516;SDS011;7344;50.864;4.362;2022-11-15T12:44:03;3.07;;;1.60;;
14516;SDS011;7344;50.864;4.362;2022-11-15T12:49:10;4.03;;;1.70;;
14516;SDS011;7344;50.864;4.362;2022-11-15T13:02:37;4.77;;;1.87;;
14516;SDS011;7344;50.864;4.362;2022-11-15T13:17:48;2.13;;;1.60;;
14516;SDS011;7344;50.864;4.362;2022-11-15T13:22:45;4.03;;;1.30;;
14516;SDS011;7344;50.864;4.362;2022-11-15T13:28:02;7.07;;;1.50;;
14516;SDS011;7344;50.864;4.362;2022-11-15T13:30:34;2.83;;;1.60;;
14516;SDS011;7344;50.864;4.362;2022-11-15T13:33:07;4.97;;;2.00;;
14516;SDS011;7344;50.864;4.362;2022-11-15T13:35:40;2.63;;;1.67;;
14516;SDS011;7344;50.864;4.362;2022-11-15T13:38:25;4.43;;;1.63;;
14516;SDS011;7344;50.864;4.362;2022-11-15T13:40:52;7.07;;;1.93;;
14516;SDS011;7344;50.864;4.362;2022-11-15T13:46:05;2.77;;;1.60;;
14516;SDS011;7344;50.864;4.362;2022-11-15T13:48:43;2.53;;;1.30;;
14516;SDS011;7344;50.864;4.362;2022-11-15T13:56:38;3.10;;;1.50;;
14516;SDS011;7344;50.864;4.362;2022-11-15T13:59:09;4.70;;;1.73;;
14516;SDS011;7344;50.864;4.362;2022-11-15T14:01:56;1.90;;;1.30;;
14516;SDS011;7344;50.864;4.362;2022-11-15T14:04:26;2.40;;;1.60;;
14516;SDS011;7344;50.864;4.362;2022-11-15T14:06:59;4.27;;;1.90;;
14516;SDS011;7344;50.864;4.362;2022-11-15T14:11:58;3.20;;;1.60;;
14516;SDS011;7344;50.864;4.362;2022-11-15T14:14:25;3.63;;;1.70;;
14516;SDS011;7344;50.864;4.362;2022-11-15T14:16:56;2.77;;;1.60;;
14516;SDS011;7344;50.864;4.362;2022-11-15T14:24:35;1.83;;;1.70;;
14516;SDS011;7344;50.864;4.362;2022-11-15T14:27:17;2.20;;;2.00;;
14516;SDS011;7344;50.864;4.362;2022-11-15T14:29:46;2.00;;;1.90;;
14516;SDS011;7344;50.864;4.362;2022-11-15T14:32:16;4.90;;;2.60;;
14516;SDS011;7344;50.864;4.362;2022-11-15T14:34:45;34.07;;;22.53;;
14516;SDS011;7344;50.864;4.362;2022-11-15T14:37:24;3.73;;;1.60;;
14516;SDS011;7344;50.864;4.362;2022-11-15T14:39:51;2.50;;;2.00;;
14516;SDS011;7344;50.864;4.362;2022-11-15T14:42:18;4.07;;;2.17;;
14516;SDS011;7344;50.864;4.362;2022-11-15T14:44:44;2.20;;;1.70;;
14516;SDS011;7344;50.864;4.362;2022-11-15T14:47:10;3.60;;;2.10;;
14516;SDS011;7344;50.864;4.362;2022-11-15T14:49:35;4.90;;;2.47;;
14516;SDS011;7344;50.864;4.362;2022-11-15T14:52:01;3.83;;;2.00;;
14516;SDS011;7344;50.864;4.362;2022-11-15T14:54:45;3.73;;;1.97;;
14516;SDS011;7344;50.864;4.362;2022-11-15T14:57:10;2.33;;;2.10;;
14516;SDS011;7344;50.864;4.362;2022-11-15T14:59:36;4.00;;;2.20;;
14516;SDS011;7344;50.864;4.362;2022-11-15T15:02:09;3.90;;;1.90;;
14516;SDS011;7344;50.864;4.362;2022-11-15T15:04:43;2.57;;;2.07;;
14516;SDS011;7344;50.864;4.362;2022-11-15T15:07:08;2.57;;;2.03;;
14516;SDS011;7344;50.864;4.362;2022-11-15T15:09:34;2.10;;;2.00;;
14516;SDS011;7344;50.864;4.362;2022-11-15T15:12:02;2.30;;;2.10;;
14516;SDS011;7344;50.864;4.362;2022-11-15T15:14:28;2.70;;;2.10;;
14516;SDS011;7344;50.864;4.362;2022-11-15T15:16:54;3.03;;;2.10;;
14516;SDS011;7344;50.864;4.362;2022-11-15T15:19:20;3.00;;;2.10;;
14516;SDS011;7344;50.864;4.362;2022-11-15T15:21:45;3.80;;;2.20;;
14516;SDS011;7344;50.864;4.362;2022-11-15T15:24:14;3.70;;;2.30;;
14516;SDS011;7344;50.864;4.362;2022-11-15T15:26:45;2.40;;;2.20;;
14516;SDS011;7344;50.864;4.362;2022-11-15T15:29:11;2.60;;;2.17;;
14516;SDS011;7344;50.864;4.362;2022-11-15T15:31:37;2.67;;;2.40;;
14516;SDS011;7344;50.864;4.362;2022-11-15T15:34:02;4.63;;;2.43;;
14516;SDS011;7344;50.864;4.362;2022-11-15T15:36:29;2.53;;;2.33;;
14516;SDS011;7344;50.864;4.362;2022-11-15T15:38:54;3.50;;;2.50;;
14516;SDS011;7344;50.864;4.362;2022-11-15T15:41:20;2.70;;;2.27;;
14516;SDS011;7344;50.864;4.362;2022-11-15T15:43:46;2.37;;;2.17;;
14516;SDS011;7344;50.864;4.362;2022-11-15T15:46:16;3.00;;;2.70;;
14516;SDS011;7344;50.864;4.362;2022-11-15T15:48:46;2.60;;;2.40;;
14516;SDS011;7344;50.864;4.362;2022-11-15T15:51:11;4.33;;;2.50;;
14516;SDS011;7344;50.864;4.362;2022-11-15T15:53:37;4.83;;;2.83;;
14516;SDS011;7344;50.864;4.362;2022-11-15T15:56:03;5.60;;;2.60;;
14516;SDS011;7344;50.864;4.362;2022-11-15T15:58:29;2.77;;;2.57;;
14516;SDS011;7344;50.864;4.362;2022-11-15T16:00:56;3.20;;;2.90;;
14516;SDS011;7344;50.864;4.362;2022-11-15T16:03:22;3.90;;;2.70;;
14516;SDS011;7344;50.864;4.362;2022-11-15T16:05:49;2.70;;;2.50;;
14516;SDS011;7344;50.864;4.362;2022-11-15T16:08:18;2.70;;;2.50;;
14516;SDS011;7344;50.864;4.362;2022-11-15T16:10:46;2.80;;;2.50;;
14516;SDS011;7344;50.864;4.362;2022-11-15T16:13:15;3.33;;;3.00;;
14516;SDS011;7344;50.864;4.362;2022-11-15T16:15:41;4.13;;;3.10;;
14516;SDS011;7344;50.864;4.362;2022-11-15T16:18:14;4.07;;;3.10;;
14516;SDS011;7344;50.864;4.362;2022-11-15T16:20:42;3.77;;;3.17;;
14516;SDS011;7344;50.864;4.362;2022-11-15T16:23:10;3.00;;;2.80;;
14516;SDS011;7344;50.864;4.362;2022-11-15T16:25:44;3.10;;;2.90;;
14516;SDS011;7344;50.864;4.362;2022-11-15T16:28:30;4.30;;;3.13;;
14516;SDS011;7344;50.864;4.362;2022-11-15T16:33:26;3.57;;;3.20;;
14516;SDS011;7344;50.864;4.362;2022-11-15T16:35:52;3.63;;;3.33;;
14516;SDS011;7344;50.864;4.362;2022-11-15T16:38:17;3.30;;;3.00;;
14516;SDS011;7344;50.864;4.362;2022-11-15T16:40:43;2.93;;;2.73;;
14516;SDS011;7344;50.864;4.362;2022-11-15T16:43:09;2.87;;;2.60;;
14516;SDS011;7344;50.864;4.362;2022-11-15T16:45:35;5.40;;;3.13;;
14516;SDS011;7344;50.864;4.362;2022-11-15T16:48:00;3.50;;;3.13;;
14516;SDS011;7344;50.864;4.362;2022-11-15T16:50:27;3.77;;;3.10;;
14516;SDS011;7344;50.864;4.362;2022-11-15T16:52:55;3.03;;;2.83;;
14516;SDS011;7344;50.864;4.362;2022-11-15T16:55:23;3.77;;;3.40;;
14516;SDS011;7344;50.864;4.362;2022-11-15T16:57:50;4.00;;;3.40;;
14516;SDS011;7344;50.864;4.362;2022-11-15T17:00:17;5.23;;;4.83;;
14516;SDS011;7344;50.864;4.362;2022-11-15T17:02:44;4.27;;;3.83;;
14516;SDS011;7344;50.864;4.362;2022-11-15T17:05:11;7.37;;;6.77;;
14516;SDS011;7344;50.864;4.362;2022-11-15T17:07:38;3.50;;;3.20;;
14516;SDS011;7344;50.864;4.362;2022-11-15T17:10:04;4.33;;;3.57;;
14516;SDS011;7344;50.864;4.362;2022-11-15T17:12:31;3.73;;;3.50;;
14516;SDS011;7344;50.864;4.362;2022-11-15T17:14:58;4.03;;;3.73;;
14516;SDS011;7344;50.864;4.362;2022-11-15T17:17:23;3.73;;;3.43;;
14516;SDS011;7344;50.864;4.362;2022-11-15T17:19:50;3.77;;;3.57;;
14516;SDS011;7344;50.864;4.362;2022-11-15T17:22:26;4.57;;;3.70;;
14516;SDS011;7344;50.864;4.362;2022-11-15T17:24:51;5.00;;;3.83;;
14516;SDS011;7344;50.864;4.362;2022-11-15T17:27:17;6.50;;;5.80;;
14516;SDS011;7344;50.864;4.362;2022-11-15T17:29:43;6.07;;;3.93;;